Time;durP1;ratioP1;P1;durP2;ratioP2;P2;SDS_P1;SDS_P2;PMS_P1;PMS_P2;Temp;Humidity;BMP_temperature;BMP_pressure;BME280_temperature;BME280_humidity;BME280_pressure;Samples;Min_cycle;Max_cycle;Signal;HPM_P1;HPM_P2
2021/04/20 00:01:28;;;;;;;7.45;3.78;;;;;;;6.91;48.88;100420.91;5063378;28;20021;-61
2021/04/20 00:03:54;;;;;;;7.22;3.50;;;;;;;6.91;49.65;100422.59;5063254;28;20041;-61
2021/04/20 00:06:20;;;;;;;6.13;3.67;;;;;;;6.99;49.41;100414.94;5063279;28;20033;-60
2021/04/20 00:08:46;;;;;;;4.88;3.50;;;;;;;7.03;49.62;100425.25;5063220;28;20092;-61
2021/04/20 00:11:12;;;;;;;6.22;3.80;;;;;;;7.05;49.41;100427.84;5063330;28;20036;-60
2021/04/20 00:13:38;;;;;;;5.97;3.60;;;;;;;6.82;49.99;100420.00;5063188;28;20028;-60
2021/04/20 00:16:04;;;;;;;7.70;3.75;;;;;;;7.08;49.66;100421.00;5063213;28;20132;-61
2021/04/20 00:18:30;;;;;;;6.78;3.53;;;;;;;7.01;49.52;100419.25;5063260;28;20032;-62
2021/04/20 00:20:56;;;;;;;7.13;4.22;;;;;;;7.09;49.14;100419.28;5063144;28;20025;-61
2021/04/20 00:23:22;;;;;;;6.63;4.50;;;;;;;7.11;48.35;100425.28;5063062;28;20020;-62
2021/04/20 00:25:48;;;;;;;8.27;3.88;;;;;;;6.90;48.17;100421.75;5063096;28;20029;-60
2021/04/20 00:28:25;;;;;;;7.95;4.13;;;;;;;6.99;47.85;100423.50;5062918;28;20041;-61
2021/04/20 00:30:51;;;;;;;7.13;3.60;;;;;;;7.11;47.38;100420.13;5062946;28;20365;-61
2021/04/20 00:33:35;;;;;;;5.97;3.30;;;;;;;6.69;47.73;100425.06;5062975;28;20025;-62
2021/04/20 00:36:05;;;;;;;4.95;3.47;;;;;;;6.70;47.08;100385.59;5063036;28;20025;-60
2021/04/20 00:38:31;;;;;;;8.43;3.70;;;;;;;6.70;46.99;100437.06;5062830;28;20233;-60
2021/04/20 00:41:12;;;;;;;6.15;3.80;;;;;;;6.52;46.02;100359.75;5063032;28;20258;-62
2021/04/20 00:43:44;;;;;;;4.53;3.22;;;;;;;6.44;45.68;100362.28;5062937;28;20025;-62
2021/04/20 00:46:12;;;;;;;;;;;;;;;6.67;44.26;100415.59;5064756;28;20210;-60
2021/04/20 00:48:38;;;;;;;6.25;3.50;;;;;;;6.88;44.60;100415.75;5066637;28;19905;-62
2021/04/20 00:51:05;;;;;;;5.35;3.50;;;;;;;6.57;43.43;100428.41;5066694;28;20306;-61
2021/04/20 00:53:31;;;;;;;4.72;3.17;;;;;;;6.72;43.26;100412.19;5066500;28;20033;-61
2021/04/20 00:55:57;;;;;;;3.78;2.90;;;;;;;6.54;42.81;100418.09;5066517;28;20067;-60
2021/04/20 00:58:24;;;;;;;6.60;3.47;;;;;;;6.60;41.99;100418.97;5066337;28;20032;-62
2021/04/20 01:00:51;;;;;;;6.40;3.08;;;;;;;6.65;41.45;100412.16;5066532;28;20046;-60
2021/04/20 01:03:17;;;;;;;5.97;2.95;;;;;;;6.55;41.17;100414.66;5066462;28;20036;-60
2021/04/20 01:05:46;;;;;;;6.07;2.85;;;;;;;6.25;40.31;100373.31;5066428;28;20040;-59
2021/04/20 01:08:14;;;;;;;6.15;3.40;;;;;;;6.35;40.23;100418.81;5065309;28;20103;-59
2021/04/20 01:10:45;;;;;;;9.10;3.10;;;;;;;5.98;39.75;100357.66;5066527;28;20056;-59
2021/04/20 01:13:12;;;;;;;4.43;2.90;;;;;;;6.52;39.61;100409.50;5066165;28;20156;-59
2021/04/20 01:15:41;;;;;;;4.72;3.33;;;;;;;6.49;38.29;100406.91;5065837;28;20092;-61
2021/04/20 01:18:16;;;;;;;7.57;3.28;;;;;;;6.41;38.59;100398.25;5066052;28;20029;-60
2021/04/20 01:20:44;;;;;;;5.95;3.35;;;;;;;6.55;38.58;100381.22;5065936;28;20127;-59
2021/04/20 01:23:18;;;;;;;4.20;3.08;;;;;;;6.21;37.89;100332.13;5065985;28;20100;-59
2021/04/20 01:25:45;;;;;;;4.20;2.88;;;;;;;6.30;38.28;100395.63;5066094;28;20029;-59
2021/04/20 01:28:11;;;;;;;4.57;3.10;;;;;;;6.50;38.70;100387.16;5065936;28;20031;-60
2021/04/20 01:30:37;;;;;;;3.45;2.70;;;;;;;6.37;38.33;100397.41;5065603;28;20032;-60
2021/04/20 01:33:05;;;;;;;7.53;3.10;;;;;;;6.07;38.61;100335.44;5065851;28;20324;-59
2021/04/20 01:35:33;;;;;;;7.50;3.28;;;;;;;6.10;38.78;100315.75;5065866;28;20025;-61
2021/04/20 01:38:04;;;;;;;5.13;2.85;;;;;;;6.54;38.88;100381.19;5065789;28;20051;-60
2021/04/20 01:40:31;;;;;;;4.75;3.10;;;;;;;6.36;38.82;100374.25;5065117;28;20032;-60
2021/04/20 01:43:04;;;;;;;6.95;2.75;;;;;;;6.04;38.70;100344.88;5065688;28;20217;-59
2021/04/20 01:45:32;;;;;;;4.95;3.28;;;;;;;6.19;38.47;100384.41;5065034;28;20412;-60
2021/04/20 01:47:59;;;;;;;3.50;2.50;;;;;;;6.05;37.82;100325.16;5065517;28;20032;-59
2021/04/20 01:50:26;;;;;;;4.93;2.80;;;;;;;6.20;37.94;100379.25;5065718;28;20072;-60
2021/04/20 01:52:53;;;;;;;7.93;2.70;;;;;;;6.27;38.08;100369.91;5065747;28;20078;-63
2021/04/20 01:55:19;;;;;;;3.83;2.90;;;;;;;6.46;37.39;100367.44;5065413;28;20028;-61
2021/04/20 01:57:48;;;;;;;5.57;3.13;;;;;;;6.01;37.12;100320.81;5065331;28;20031;-60
2021/04/20 02:00:17;;;;;;;5.30;3.05;;;;;;;5.83;37.13;100306.09;5065067;28;20059;-61
2021/04/20 02:02:43;;;;;;;5.75;3.00;;;;;;;5.96;37.19;100367.03;5065329;28;20242;-61
2021/04/20 02:05:10;;;;;;;5.57;3.05;;;;;;;6.23;37.22;100381.00;5065123;28;20067;-61
2021/04/20 02:07:37;;;;;;;6.07;2.88;;;;;;;6.20;37.51;100371.56;5065133;28;20033;-59
2021/04/20 02:10:08;;;;;;;6.72;2.80;;;;;;;5.87;37.01;100318.09;5065181;28;20039;-60
2021/04/20 02:12:44;;;;;;;5.97;2.70;;;;;;;6.04;37.00;100373.16;5064904;28;20049;-60
2021/04/20 02:15:13;;;;;;;6.95;2.90;;;;;;;5.74;36.79;100308.59;5065009;28;20409;-60
2021/04/20 02:17:41;;;;;;;5.65;2.80;;;;;;;5.72;37.03;100318.00;5065055;28;20256;-59
2021/04/20 02:20:10;;;;;;;3.70;2.25;;;;;;;5.61;36.47;100300.75;5064823;28;20032;-59
2021/04/20 02:22:43;;;;;;;5.93;3.00;;;;;;;6.05;36.87;100346.56;5065026;28;20305;-60
2021/04/20 02:25:15;;;;;;;6.20;2.50;;;;;;;5.77;36.71;100299.22;5064639;28;20305;-62
2021/04/20 02:27:41;;;;;;;8.77;2.78;;;;;;;6.23;36.30;100368.16;5064566;28;20032;-62
2021/04/20 02:30:09;;;;;;;4.38;2.58;;;;;;;6.12;36.53;100359.50;5064533;28;20044;-62
2021/04/20 02:32:39;;;;;;;5.53;2.95;;;;;;;6.28;36.30;100350.16;5064875;28;20101;-62
2021/04/20 02:35:08;;;;;;;3.10;2.33;;;;;;;5.55;36.65;100297.28;5064766;28;20052;-60
2021/04/20 02:37:35;;;;;;;5.25;3.13;;;;;;;5.77;36.83;100367.72;5064589;28;20044;-61
2021/04/20 02:40:12;;;;;;;10.00;2.65;;;;;;;5.61;36.43;100305.91;5063862;28;20055;-62
2021/04/20 02:42:39;;;;;;;5.88;2.90;;;;;;;5.98;36.91;100362.78;5064162;28;20043;-61
2021/04/20 02:45:07;;;;;;;4.78;3.00;;;;;;;5.98;36.19;100339.66;5064060;28;20079;-62
2021/04/20 02:47:36;;;;;;;6.82;3.10;;;;;;;6.07;36.79;100358.56;5064500;28;20024;-62
2021/04/20 02:50:07;;;;;;;4.40;2.90;;;;;;;6.17;36.20;100370.66;5044377;28;20033;-61
2021/04/20 02:52:36;;;;;;;4.43;2.53;;;;;;;5.81;37.44;100352.31;5044510;28;20333;-61
2021/04/20 02:55:04;;;;;;;5.03;2.95;;;;;;;5.36;36.95;100315.97;5044250;28;20025;-61
2021/04/20 02:57:37;;;;;;;7.05;2.80;;;;;;;5.87;36.65;100372.97;5044280;28;20202;-61
2021/04/20 03:00:11;;;;;;;10.73;2.15;;;;;;;5.29;37.38;100314.16;5044069;28;20037;-59
2021/04/20 03:02:39;;;;;;;5.05;2.92;;;;;;;5.68;37.05;100379.63;5044195;28;20036;-61
2021/04/20 03:05:08;;;;;;;2.60;2.28;;;;;;;5.58;37.03;100364.97;5043800;28;20036;-60
2021/04/20 03:07:34;;;;;;;3.72;2.50;;;;;;;5.74;36.88;100365.13;5044111;28;20053;-59
2021/04/20 03:10:01;;;;;;;4.43;2.90;;;;;;;5.90;37.00;100368.69;5043534;28;20037;-59
2021/04/20 03:12:27;;;;;;;6.55;2.70;;;;;;;5.57;37.39;100370.94;5044272;28;20030;-60
2021/04/20 03:14:54;;;;;;;4.63;2.72;;;;;;;5.79;37.31;100368.59;5063847;28;20033;-59
2021/04/20 03:17:20;;;;;;;7.40;2.60;;;;;;;5.62;37.15;100371.88;5063872;28;20091;-59
2021/04/20 03:19:47;;;;;;;3.70;2.28;;;;;;;5.44;37.21;100358.84;5063623;28;20039;-60
2021/04/20 03:22:14;;;;;;;7.28;2.95;;;;;;;5.63;37.27;100378.72;5063821;28;20029;-60
2021/04/20 03:24:58;;;;;;;5.78;2.63;;;;;;;5.65;37.23;100373.59;5063858;28;20037;-60
2021/04/20 03:27:24;;;;;;;5.32;3.15;;;;;;;5.63;37.56;100378.72;5063706;28;20021;-60
2021/04/20 03:29:50;;;;;;;5.03;2.83;;;;;;;5.72;37.39;100369.41;5063563;28;20101;-60
2021/04/20 03:32:16;;;;;;;4.50;2.33;;;;;;;5.50;37.58;100370.03;5063377;28;20297;-60
2021/04/20 03:34:48;;;;;;;5.50;2.65;;;;;;;4.98;37.70;100302.72;5062438;28;20028;-60
2021/04/20 03:37:20;;;;;;;4.95;3.03;;;;;;;5.64;37.87;100364.16;5063267;28;20028;-60
2021/04/20 03:39:49;;;;;;;4.80;2.47;;;;;;;5.02;37.47;100309.59;5063610;28;20029;-60
2021/04/20 03:42:27;;;;;;;3.80;2.22;;;;;;;5.10;37.85;100318.25;5063496;28;20240;-59
2021/04/20 03:44:55;;;;;;;6.30;2.47;;;;;;;5.26;37.39;100301.31;5063372;28;20040;-59
2021/04/20 03:47:31;;;;;;;7.32;2.72;;;;;;;5.37;38.27;100360.47;5063257;28;20050;-60
2021/04/20 03:50:00;;;;;;;6.95;2.85;;;;;;;4.96;37.80;100296.69;5063471;28;20055;-58
2021/04/20 03:52:36;;;;;;;3.88;2.40;;;;;;;5.43;37.33;100349.41;5063188;28;20332;-59
2021/04/20 03:55:03;;;;;;;5.03;3.00;;;;;;;5.66;37.64;100363.34;5061721;28;20039;-60
2021/04/20 03:57:34;;;;;;;5.82;2.40;;;;;;;5.81;37.28;100331.78;5062615;28;20048;-60
2021/04/20 04:00:02;;;;;;;4.43;2.20;;;;;;;5.88;36.93;100355.81;5062284;28;20048;-60
2021/04/20 04:02:31;;;;;;;7.65;2.80;;;;;;;5.78;37.15;100369.44;5062382;28;20305;-59
2021/04/20 04:05:01;;;;;;;7.03;2.40;;;;;;;5.74;37.70;100357.41;5062131;28;20028;-60
2021/04/20 04:07:29;;;;;;;5.63;2.97;;;;;;;5.62;37.85;100353.88;5062254;28;20047;-60
2021/04/20 04:09:57;;;;;;;6.90;2.80;;;;;;;5.70;37.92;100362.53;5062164;28;20318;-62
2021/04/20 04:12:25;;;;;;;7.28;2.55;;;;;;;5.70;37.32;100357.38;5062401;28;20029;-60
2021/04/20 04:14:54;;;;;;;5.75;2.92;;;;;;;5.06;37.36;100293.41;5059902;28;20202;-59
2021/04/20 04:17:23;;;;;;;5.57;2.45;;;;;;;5.63;37.26;100355.59;5047830;28;20108;-59
2021/04/20 04:19:53;;;;;;;6.70;2.72;;;;;;;5.33;38.01;100309.91;5043009;28;20041;-59
2021/04/20 04:22:29;;;;;;;6.15;2.83;;;;;;;5.60;37.47;100286.22;5046394;28;20036;-61
2021/04/20 04:24:57;;;;;;;7.93;2.75;;;;;;;5.64;37.59;100297.38;5059664;28;20232;-60
2021/04/20 04:27:27;;;;;;;4.03;2.58;;;;;;;5.76;37.16;100345.44;5066382;28;20048;-58
2021/04/20 04:29:57;;;;;;;8.20;3.33;;;;;;;5.44;37.86;100369.97;5066683;28;20335;-58
2021/04/20 04:32:24;;;;;;;7.30;2.80;;;;;;;5.55;37.48;100348.69;5065102;28;20031;-62
2021/04/20 04:34:50;;;;;;;7.78;2.88;;;;;;;5.75;37.74;100352.28;5064357;28;20032;-60
2021/04/20 04:37:17;;;;;;;5.43;2.85;;;;;;;5.59;37.63;100338.44;5064188;28;20108;-59
2021/04/20 04:39:44;;;;;;;5.78;3.00;;;;;;;5.58;38.31;100341.84;5064264;28;20233;-58
2021/04/20 04:42:11;;;;;;;4.63;2.85;;;;;;;5.69;37.44;100340.25;5064105;28;20031;-59
2021/04/20 04:44:37;;;;;;;6.47;3.20;;;;;;;5.92;37.98;100339.59;5064488;28;20024;-59
2021/04/20 04:47:06;;;;;;;5.88;2.90;;;;;;;5.57;37.09;100278.44;5064865;28;20032;-58
2021/04/20 04:49:32;;;;;;;6.93;2.70;;;;;;;5.69;38.09;100327.41;5066145;28;20029;-57
2021/04/20 04:51:59;;;;;;;5.30;3.20;;;;;;;5.85;37.63;100327.53;5065868;28;20033;-58
2021/04/20 04:54:26;;;;;;;7.60;3.20;;;;;;;6.08;36.75;100334.59;5065872;28;20029;-59
2021/04/20 04:56:53;;;;;;;8.93;3.17;;;;;;;5.67;36.89;100275.13;5066229;28;20035;-59
2021/04/20 04:59:22;;;;;;;6.10;2.80;;;;;;;5.92;37.57;100326.72;5065917;28;20060;-59
2021/04/20 05:01:50;;;;;;;7.13;2.72;;;;;;;5.85;37.60;100320.66;5065838;28;20064;-60
2021/04/20 05:04:16;;;;;;;7.38;3.20;;;;;;;5.97;37.10;100326.75;5064472;28;20043;-58
2021/04/20 05:06:47;;;;;;;7.00;3.08;;;;;;;6.15;37.63;100297.78;5066028;28;20025;-59
2021/04/20 05:09:18;;;;;;;8.10;3.30;;;;;;;5.88;37.37;100284.69;5066224;28;20256;-59
2021/04/20 05:11:45;;;;;;;7.55;3.20;;;;;;;6.49;36.72;100314.28;5065758;28;20032;-58
2021/04/20 05:14:12;;;;;;;6.63;2.80;;;;;;;6.36;36.32;100303.06;5064530;28;20043;-58
2021/04/20 05:16:40;;;;;;;7.43;3.28;;;;;;;6.64;36.62;100298.06;5065384;28;20047;-59
2021/04/20 05:19:09;;;;;;;5.88;2.60;;;;;;;6.05;37.05;100282.28;5063677;28;20100;-59
2021/04/20 05:21:35;;;;;;;6.93;3.40;;;;;;;6.61;36.20;100310.91;5063618;28;20091;-60
2021/04/20 05:24:01;;;;;;;4.25;2.90;;;;;;;6.66;36.19;100305.78;5063746;28;20032;-59
2021/04/20 05:26:30;;;;;;;9.73;3.33;;;;;;;6.56;36.73;100289.44;5063981;28;20029;-60
2021/04/20 05:29:00;;;;;;;4.80;3.10;;;;;;;7.03;36.24;100318.81;5063956;28;20096;-60
2021/04/20 05:31:27;;;;;;;8.90;2.63;;;;;;;6.57;36.31;100301.47;5043095;28;20060;-59
2021/04/20 05:34:00;;;;;;;11.00;3.22;;;;;;;6.55;36.84;100288.56;5044712;28;20036;-59
2021/04/20 05:36:27;;;;;;;7.38;3.35;;;;;;;6.84;36.08;100271.53;5045484;28;20037;-59
2021/04/20 05:38:55;;;;;;;6.90;3.08;;;;;;;6.72;36.41;100265.47;5045455;28;20375;-59
2021/04/20 05:41:25;;;;;;;9.38;2.88;;;;;;;6.90;36.59;100279.28;5045545;28;20079;-59
2021/04/20 05:43:52;;;;;;;6.57;3.10;;;;;;;7.27;35.84;100274.22;5045310;28;20034;-59
2021/04/20 05:46:19;;;;;;;8.13;3.10;;;;;;;7.33;35.68;100281.09;5044884;28;20025;-58
2021/04/20 05:48:46;;;;;;;6.40;3.47;;;;;;;7.05;36.17;100279.34;5044791;28;20095;-60
2021/04/20 05:51:15;;;;;;;8.18;3.55;;;;;;;7.29;35.96;100276.81;5045479;28;20214;-59
2021/04/20 05:53:41;;;;;;;8.73;3.25;;;;;;;7.37;35.60;100275.94;5044192;28;20314;-60
2021/04/20 05:56:07;;;;;;;8.65;3.00;;;;;;;7.23;35.71;100270.78;5044990;28;20253;-61
2021/04/20 05:58:34;;;;;;;8.13;3.03;;;;;;;7.73;35.11;100273.41;5044494;28;20043;-60
2021/04/20 06:01:01;;;;;;;6.93;3.13;;;;;;;8.08;34.39;100280.22;5044303;28;20373;-59
2021/04/20 06:03:28;;;;;;;4.70;3.03;;;;;;;8.09;34.61;100259.63;5044786;28;20033;-60
2021/04/20 06:05:56;;;;;;;8.18;3.47;;;;;;;7.63;34.97;100210.66;5045262;28;20117;-60
2021/04/20 06:08:24;;;;;;;6.57;3.42;;;;;;;8.07;34.26;100283.69;5045010;28;20030;-59
2021/04/20 06:10:52;;;;;;;10.90;3.03;;;;;;;8.33;34.63;100273.28;5044730;28;20025;-59
2021/04/20 06:13:18;;;;;;;4.55;2.83;;;;;;;8.41;34.88;100261.25;5044249;28;20088;-60
2021/04/20 06:15:50;;;;;;;;;;;;;;;9.01;33.30;100252.41;5044646;28;20049;-59
2021/04/20 06:18:16;;;;;;;8.20;3.45;;;;;;;9.37;32.61;100249.59;5044721;28;19909;-59
2021/04/20 06:20:42;;;;;;;9.48;3.30;;;;;;;9.18;33.33;100243.66;5044791;28;20022;-59
2021/04/20 06:23:08;;;;;;;8.25;3.50;;;;;;;9.46;32.89;100242.63;5043665;28;20199;-59
2021/04/20 06:25:34;;;;;;;6.47;3.00;;;;;;;9.08;33.11;100246.31;5044481;28;20052;-59
2021/04/20 06:28:00;;;;;;;7.88;3.22;;;;;;;8.86;33.12;100253.31;5044107;28;20051;-60
2021/04/20 06:30:27;;;;;;;6.78;3.50;;;;;;;9.33;32.65;100257.38;5056827;28;20263;-59
2021/04/20 06:32:53;;;;;;;9.07;3.47;;;;;;;9.42;32.98;100246.09;5064614;28;20357;-60
2021/04/20 06:35:22;;;;;;;4.65;3.40;;;;;;;9.28;32.89;100183.31;5064615;28;20029;-60
2021/04/20 06:37:51;;;;;;;7.63;3.50;;;;;;;9.45;32.86;100209.03;5064497;28;20025;-60
2021/04/20 06:40:28;;;;;;;10.95;3.63;;;;;;;9.71;32.74;100174.31;5063851;28;20309;-59
2021/04/20 06:42:58;;;;;;;9.82;3.95;;;;;;;9.40;32.93;100174.59;5063576;28;20091;-61
2021/04/20 06:45:32;;;;;;;5.72;3.05;;;;;;;9.98;32.33;100232.66;5064143;28;20106;-61
2021/04/20 06:48:03;;;;;;;12.55;3.88;;;;;;;9.51;33.36;100234.81;5064238;28;20036;-59
2021/04/20 06:50:33;;;;;;;8.98;3.67;;;;;;;9.87;32.29;100247.44;5064222;28;20044;-58
2021/04/20 06:53:03;;;;;;;10.38;4.13;;;;;;;9.72;33.03;100213.09;5064022;28;20032;-58
2021/04/20 06:56:05;;;;;;;5.85;3.63;;;;;;;10.11;32.57;100163.53;5063748;28;20063;-59
2021/04/20 06:58:53;;;;;;;6.30;3.35;;;;;;;10.41;31.70;100221.03;5062572;28;20281;-60
2021/04/20 07:01:29;;;;;;;5.80;3.58;;;;;;;9.61;32.54;100158.88;5064030;28;20039;-60
2021/04/20 07:04:16;;;;;;;5.57;3.10;;;;;;;9.78;33.39;100217.34;5063974;28;20032;-60
2021/04/20 07:06:51;;;;;;;9.15;3.88;;;;;;;10.35;32.13;100211.59;5063856;28;20336;-59
2021/04/20 07:09:26;;;;;;;12.48;3.80;;;;;;;9.76;33.59;100217.38;5063969;28;20032;-60
2021/04/20 07:11:54;;;;;;;7.25;3.45;;;;;;;9.45;32.93;100165.06;5063612;28;20138;-60
2021/04/20 07:14:44;;;;;;;10.02;3.90;;;;;;;10.06;33.17;100212.75;5063789;28;20095;-60
2021/04/20 07:17:10;;;;;;;6.57;3.53;;;;;;;10.42;32.54;100208.06;5063798;28;20040;-59
2021/04/20 07:19:53;;;;;;;7.32;3.45;;;;;;;9.85;33.43;100198.31;5063719;28;20025;-59
2021/04/20 07:22:37;;;;;;;6.75;3.80;;;;;;;9.78;32.98;100201.84;5063436;28;20033;-59
2021/04/20 07:25:17;;;;;;;6.53;3.53;;;;;;;9.09;33.98;100211.88;5063446;28;20029;-58
2021/04/20 07:27:51;;;;;;;5.32;3.63;;;;;;;9.53;33.68;100211.53;5063321;28;20028;-60
2021/04/20 07:30:23;;;;;;;14.23;4.68;;;;;;;9.45;34.26;100206.44;5063142;28;20218;-60
2021/04/20 07:33:14;;;;;;;6.65;3.58;;;;;;;9.11;34.05;100214.44;5063178;28;20103;-60
2021/04/20 07:35:53;;;;;;;9.07;4.03;;;;;;;9.62;34.54;100216.59;5063104;28;20213;-60
2021/04/20 07:38:39;;;;;;;7.63;3.90;;;;;;;8.88;34.50;100157.75;5063090;28;20301;-60
2021/04/20 07:41:42;;;;;;;5.22;4.03;;;;;;;8.52;34.83;100162.28;5062811;28;20230;-60
2021/04/20 07:44:32;;;;;;;9.05;4.35;;;;;;;9.33;35.07;100212.53;5063080;28;20037;-60
2021/04/20 07:47:05;;;;;;;10.45;3.70;;;;;;;9.05;34.99;100136.97;5058944;28;20045;-60
2021/04/20 07:49:41;;;;;;;9.23;4.15;;;;;;;9.75;33.96;100191.50;5062808;28;20309;-60
2021/04/20 07:52:13;;;;;;;10.10;3.90;;;;;;;9.22;34.61;100145.44;5063009;28;20251;-60
2021/04/20 07:54:54;;;;;;;10.02;4.20;;;;;;;9.06;34.96;100149.03;5062563;28;20032;-60
2021/04/20 07:57:45;;;;;;;7.97;4.18;;;;;;;10.07;33.30;100209.28;5062853;28;20104;-60
2021/04/20 08:00:31;;;;;;;9.05;4.00;;;;;;;8.87;35.47;100167.22;5062926;28;20114;-58
2021/04/20 08:03:18;;;;;;;9.40;4.03;;;;;;;9.14;35.70;100225.59;5063034;28;20099;-60
2021/04/20 08:05:51;;;;;;;8.68;3.63;;;;;;;8.90;34.66;100154.28;5062989;28;20032;-61
2021/04/20 08:08:27;;;;;;;8.95;3.85;;;;;;;9.27;35.67;100191.94;5062879;28;20047;-59
2021/04/20 08:11:05;;;;;;;6.22;3.75;;;;;;;9.00;34.75;100137.00;5062909;28;20318;-59
2021/04/20 08:13:57;;;;;;;10.70;3.45;;;;;;;9.29;34.90;100205.69;5044744;28;20519;-59
2021/04/20 08:16:33;;;;;;;11.95;4.18;;;;;;;9.74;34.45;100193.22;5042804;28;20052;-60
2021/04/20 08:19:05;;;;;;;7.03;3.63;;;;;;;9.60;34.83;100192.50;5042807;28;20036;-60
2021/04/20 08:21:32;;;;;;;11.20;3.42;;;;;;;9.74;34.44;100190.66;5053317;28;20209;-60
2021/04/20 08:24:04;;;;;;;10.63;4.13;;;;;;;9.35;35.06;100133.28;5062310;28;20029;-61
2021/04/20 08:26:37;;;;;;;7.75;3.55;;;;;;;9.38;34.55;100128.06;5062455;28;20071;-60
2021/04/20 08:29:13;;;;;;;8.57;3.50;;;;;;;9.77;34.81;100171.66;5062176;28;20309;-61
2021/04/20 08:31:50;;;;;;;8.32;3.88;;;;;;;9.87;34.93;100182.78;5062285;28;20033;-62
2021/04/20 08:34:35;;;;;;;8.48;4.00;;;;;;;10.09;35.12;100170.44;5054430;28;20025;-60
2021/04/20 08:37:00;;;;;;;5.95;4.00;;;;;;;10.12;34.29;100162.66;5061404;28;20070;-60
2021/04/20 08:39:38;;;;;;;8.45;3.97;;;;;;;10.00;34.72;100166.22;5046977;28;20077;-60
2021/04/20 08:42:23;;;;;;;8.40;4.20;;;;;;;10.25;34.37;100166.81;5043573;28;20096;-61
2021/04/20 08:45:14;;;;;;;11.02;4.18;;;;;;;10.39;34.12;100165.78;5060631;28;20043;-61
2021/04/20 08:48:07;;;;;;;12.85;4.78;;;;;;;10.57;34.58;100159.53;5062857;28;20067;-61
2021/04/20 08:50:39;;;;;;;10.93;4.22;;;;;;;10.51;33.72;100114.69;5062733;28;20290;-61
2021/04/20 08:53:28;;;;;;;;;;;;;;;10.05;35.13;100167.03;5063324;28;20029;-61
2021/04/20 08:56:19;;;;;;;12.00;3.85;;;;;;;9.95;34.91;100162.84;5061258;28;19917;-61
2021/04/20 08:59:07;;;;;;;10.70;4.18;;;;;;;9.97;35.68;100161.94;5060034;28;20036;-60
2021/04/20 09:02:04;;;;;;;9.98;4.10;;;;;;;9.46;36.53;100175.41;5060391;28;20037;-60
2021/04/20 09:04:49;;;;;;;10.15;4.30;;;;;;;9.86;35.81;100143.09;5059374;28;20028;-60
2021/04/20 09:07:38;;;;;;;7.88;4.78;;;;;;;10.00;35.71;100089.47;5062986;28;20029;-61
2021/04/20 09:10:12;;;;;;;10.35;3.83;;;;;;;9.59;36.19;100090.81;5045857;28;20108;-60
2021/04/20 09:12:39;;;;;;;10.05;4.38;;;;;;;10.07;35.99;100141.16;5047707;28;20052;-57
2021/04/20 09:15:08;;;;;;;8.98;4.10;;;;;;;9.99;35.99;100081.69;5066041;28;20033;-58
2021/04/20 09:17:39;;;;;;;6.70;3.60;;;;;;;9.81;35.68;100119.88;5066258;28;20029;-58
2021/04/20 09:20:11;;;;;;;11.13;4.32;;;;;;;10.01;35.84;100098.94;5065738;28;20021;-58
2021/04/20 09:22:53;;;;;;;13.02;4.30;;;;;;;9.73;36.29;100087.22;5065887;28;20221;-58
2021/04/20 09:25:27;;;;;;;11.40;4.55;;;;;;;10.64;35.62;100141.28;5066066;28;20032;-58
2021/04/20 09:28:24;;;;;;;10.25;4.20;;;;;;;10.49;36.67;100105.25;5065648;28;20270;-58
2021/04/20 09:30:53;;;;;;;7.70;3.63;;;;;;;10.38;35.86;100081.25;5065665;28;20040;-58
2021/04/20 09:33:40;;;;;;;20.48;4.40;;;;;;;10.95;35.73;100137.38;5064734;28;20067;-58
2021/04/20 09:36:10;;;;;;;7.97;5.00;;;;;;;10.39;37.60;100086.41;5065408;28;20037;-57
2021/04/20 09:38:42;;;;;;;7.30;4.72;;;;;;;9.68;40.42;100100.19;5065243;28;20029;-57
2021/04/20 09:41:08;;;;;;;;;;;;;;;10.09;38.94;100129.91;5064454;28;20033;-57
2021/04/20 09:44:00;;;;;;;9.20;5.40;;;;;;;10.34;39.34;100117.50;5065541;28;19943;-57
2021/04/20 09:46:34;;;;;;;;;;;;;;;10.79;39.01;100122.06;5063557;28;20195;-58
2021/04/20 09:49:19;;;;;;;17.70;7.03;;;;;;;10.34;38.35;100064.88;5063178;28;19946;-57
2021/04/20 09:51:52;;;;;;;18.48;6.28;;;;;;;10.93;38.30;100114.09;5064326;28;20027;-59
2021/04/20 09:54:29;;;;;;;11.00;6.30;;;;;;;10.37;38.72;100077.78;5064871;28;20025;-56
2021/04/20 09:56:58;;;;;;;17.52;6.20;;;;;;;11.01;38.41;100107.03;5062979;28;20258;-56
2021/04/20 09:59:33;;;;;;;10.68;6.32;;;;;;;10.08;40.50;100060.06;5064686;28;20053;-56
2021/04/20 10:01:58;;;;;;;14.95;5.97;;;;;;;10.10;41.07;100110.88;5063845;28;20025;-54
2021/04/20 10:04:43;;;;;;;10.00;6.22;;;;;;;9.90;40.52;100118.91;5062416;28;20040;-55
2021/04/20 10:07:35;;;;;;;12.27;6.18;;;;;;;10.04;41.38;100058.38;5062114;28;20033;-58
2021/04/20 10:10:22;;;;;;;12.57;6.15;;;;;;;10.56;40.38;100104.28;5063175;28;20079;-58
2021/04/20 10:13:31;;;;;;;15.18;6.70;;;;;;;10.53;41.05;100125.03;5054727;28;20036;-59
2021/04/20 10:16:14;;;;;;;14.13;5.95;;;;;;;10.06;42.29;100129.06;5064007;28;20064;-58
2021/04/20 10:19:02;;;;;;;13.38;6.22;;;;;;;9.80;42.91;100039.69;5065036;28;20025;-58
2021/04/20 10:21:37;;;;;;;14.10;5.88;;;;;;;10.10;42.81;100123.84;5063785;28;20214;-58
2021/04/20 10:24:23;;;;;;;11.10;5.72;;;;;;;10.21;42.43;100115.94;5064105;28;20025;-59
2021/04/20 10:26:57;;;;;;;16.55;6.30;;;;;;;9.81;42.55;100055.19;5060775;28;20044;-59
2021/04/20 10:29:38;;;;;;;8.52;5.57;;;;;;;9.97;43.54;100099.84;5064359;28;20393;-58
2021/04/20 10:32:33;;;;;;;16.15;5.45;;;;;;;10.42;42.63;100099.31;5064767;28;20035;-58
2021/04/20 10:35:01;;;;;;;16.35;5.45;;;;;;;10.11;42.13;100111.78;5064868;28;20032;-59
2021/04/20 10:37:40;;;;;;;13.52;5.00;;;;;;;9.36;42.85;100069.50;5064488;28;20025;-58
2021/04/20 10:40:10;;;;;;;9.57;5.80;;;;;;;9.57;43.28;100096.88;5064401;28;20377;-57
2021/04/20 10:42:37;;;;;;;13.43;5.15;;;;;;;9.66;42.56;100115.72;5063893;28;20044;-58
2021/04/20 10:45:08;;;;;;;14.05;5.13;;;;;;;9.74;42.07;100107.88;5064178;28;20033;-58
2021/04/20 10:47:39;;;;;;;12.30;5.25;;;;;;;9.30;41.59;100053.19;5062185;28;20032;-58
2021/04/20 10:50:06;;;;;;;8.23;4.20;;;;;;;9.90;41.53;100128.41;5064163;28;20056;-58
2021/04/20 10:52:35;;;;;;;9.50;4.40;;;;;;;9.57;41.77;100068.44;5063991;28;20238;-58
2021/04/20 10:55:11;;;;;;;10.85;4.13;;;;;;;9.57;42.07;100125.31;5064174;28;20060;-57
2021/04/20 10:57:40;;;;;;;8.30;3.95;;;;;;;9.16;41.50;100088.63;5064138;28;20025;-57
2021/04/20 11:00:08;;;;;;;9.38;3.95;;;;;;;9.37;42.23;100125.50;5063910;28;20125;-57
2021/04/20 11:02:39;;;;;;;10.02;4.28;;;;;;;9.52;41.52;100124.50;5063581;28;20042;-58
2021/04/20 11:05:07;;;;;;;9.73;3.67;;;;;;;9.33;41.92;100124.66;5062318;28;20029;-57
2021/04/20 11:07:41;;;;;;;13.05;3.80;;;;;;;9.06;42.46;100116.28;5063629;28;20143;-58
2021/04/20 11:10:09;;;;;;;7.00;3.58;;;;;;;8.47;43.94;100082.28;5053839;28;20104;-57
2021/04/20 11:12:47;;;;;;;7.85;4.10;;;;;;;8.60;43.67;100098.56;5059792;28;20037;-57
2021/04/20 11:15:21;;;;;;;9.10;4.00;;;;;;;8.41;46.17;100093.47;5042760;28;20233;-58
2021/04/20 11:17:54;;;;;;;10.70;3.72;;;;;;;8.56;47.68;100153.66;5047977;28;20021;-57
2021/04/20 11:20:47;;;;;;;7.07;3.80;;;;;;;7.85;48.25;100089.44;5062553;28;20033;-57
2021/04/20 11:23:20;;;;;;;10.60;4.32;;;;;;;8.43;47.92;100122.69;5062751;28;20043;-58
2021/04/20 11:25:53;;;;;;;9.43;4.25;;;;;;;8.70;47.62;100115.69;5063195;28;20029;-57
2021/04/20 11:28:38;;;;;;;9.68;4.30;;;;;;;8.70;47.00;100120.84;5063356;28;20039;-57
2021/04/20 11:31:20;;;;;;;8.82;4.57;;;;;;;8.64;46.20;100053.78;5062920;28;20037;-57
2021/04/20 11:33:46;;;;;;;9.10;3.97;;;;;;;8.96;45.46;100109.47;5063273;28;20025;-57
2021/04/20 11:36:21;;;;;;;12.18;3.95;;;;;;;8.79;44.72;100120.81;5063420;28;20039;-56
2021/04/20 11:38:52;;;;;;;8.15;4.82;;;;;;;8.72;47.89;100124.31;5063106;28;20075;-57
2021/04/20 11:41:26;;;;;;;12.15;5.28;;;;;;;8.07;52.39;100113.44;5063260;28;20379;-57
2021/04/20 11:43:55;;;;;;;18.67;6.60;;;;;;;7.80;54.81;100110.09;5063631;28;20031;-58
2021/04/20 11:46:23;;;;;;;16.02;6.05;;;;;;;7.25;59.78;100163.47;5063288;28;20047;-58
2021/04/20 11:48:52;;;;;;;11.95;6.63;;;;;;;6.85;62.01;100135.09;5063053;28;20268;-57
2021/04/20 11:51:18;;;;;;;12.40;6.78;;;;;;;7.18;63.67;100160.88;5063080;28;20031;-57
2021/04/20 11:53:47;;;;;;;12.40;6.70;;;;;;;6.85;65.81;100168.56;5062626;28;20032;-58
2021/04/20 11:56:13;;;;;;;11.38;5.70;;;;;;;6.78;67.55;100164.25;5060119;28;20063;-57